Time;durP1;ratioP1;P1;durP2;ratioP2;P2;SDS_P1;SDS_P2;PMS_P1;PMS_P2;Temp;Humidity;BMP_temperature;BMP_pressure;BME280_temperature;BME280_humidity;BME280_pressure;Samples;Min_cycle;Max_cycle;Signal;HPM_P1;HPM_P2
2024/01/29 00:02:04;;;;;;;10.23;4.33;;;5.90;58.40;;;;;;4976990;28;20486;-69
2024/01/29 00:04:31;;;;;;;8.77;4.00;;;5.90;58.40;;;;;;4992579;28;20838;-69
2024/01/29 00:06:58;;;;;;;10.17;4.87;;;5.90;58.40;;;;;;4995911;28;20481;-69
2024/01/29 00:09:25;;;;;;;10.50;4.90;;;5.90;58.40;;;;;;4996022;28;20488;-70
2024/01/29 00:11:53;;;;;;;7.80;4.40;;;5.90;58.40;;;;;;4996107;28;20835;-69
2024/01/29 00:14:20;;;;;;;10.27;4.97;;;5.80;58.30;;;;;;4993869;28;20461;-69
2024/01/29 00:16:47;;;;;;;8.63;4.57;;;5.90;58.40;;;;;;4995370;28;20937;-69
2024/01/29 00:19:14;;;;;;;7.83;4.43;;;5.80;58.30;;;;;;4995801;28;20457;-69
2024/01/29 00:21:41;;;;;;;12.00;5.03;;;5.80;58.40;;;;;;4995641;28;20508;-69
2024/01/29 00:24:08;;;;;;;8.00;4.70;;;5.70;58.30;;;;;;4994275;28;20466;-70
2024/01/29 00:26:34;;;;;;;8.50;4.80;;;5.70;58.30;;;;;;4995726;28;20463;-69
2024/01/29 00:29:02;;;;;;;7.90;4.17;;;5.80;58.40;;;;;;4995384;28;20464;-69
2024/01/29 00:31:29;;;;;;;10.87;5.00;;;5.60;58.10;;;;;;4995796;28;20489;-69
2024/01/29 00:33:56;;;;;;;10.67;4.90;;;5.60;58.20;;;;;;4987600;28;20996;-70
2024/01/29 00:36:23;;;;;;;7.63;4.60;;;5.50;58.10;;;;;;4992257;28;20461;-69
2024/01/29 00:38:50;;;;;;;9.20;5.77;;;5.50;58.10;;;;;;4983323;28;20461;-70
2024/01/29 00:41:16;;;;;;;10.80;5.10;;;5.40;58.00;;;;;;4995663;28;20456;-69
2024/01/29 00:43:43;;;;;;;6.87;4.30;;;5.40;58.00;;;;;;4989286;28;20526;-69
2024/01/29 00:46:11;;;;;;;10.20;5.13;;;5.40;58.00;;;;;;4990358;28;20456;-69
2024/01/29 00:48:38;;;;;;;9.60;4.80;;;5.40;60.80;;;;;;4975791;28;20839;-70
2024/01/29 00:51:05;;;;;;;11.20;4.90;;;5.40;62.00;;;;;;4977201;28;20498;-69
2024/01/29 00:53:32;;;;;;;7.47;4.03;;;5.30;63.40;;;;;;4992332;28;20476;-70
2024/01/29 00:55:59;;;;;;;7.60;4.30;;;5.30;62.00;;;;;;4994829;28;20450;-69
2024/01/29 00:58:26;;;;;;;7.63;4.60;;;5.30;64.00;;;;;;4979931;28;20853;-69
2024/01/29 01:00:52;;;;;;;9.63;4.77;;;5.30;63.30;;;;;;4994955;28;20540;-69
2024/01/29 01:03:20;;;;;;;11.53;4.90;;;5.30;66.00;;;;;;4983706;28;20478;-69
2024/01/29 01:05:47;;;;;;;8.40;4.87;;;5.30;66.10;;;;;;4988440;28;20454;-70
2024/01/29 01:08:15;;;;;;;8.80;4.70;;;5.30;66.00;;;;;;4978785;28;20466;-68
2024/01/29 01:10:42;;;;;;;10.43;4.83;;;5.30;66.10;;;;;;4987656;28;20509;-70
2024/01/29 01:13:09;;;;;;;8.40;4.07;;;5.40;65.90;;;;;;4980158;28;20488;-68
2024/01/29 01:15:36;;;;;;;8.70;4.77;;;5.40;66.10;;;;;;4994425;28;20486;-70
2024/01/29 01:18:03;;;;;;;9.50;5.30;;;5.40;66.10;;;;;;4975376;28;20546;-69
2024/01/29 01:20:31;;;;;;;8.73;5.20;;;5.40;66.10;;;;;;4979308;28;20450;-69
2024/01/29 01:23:00;;;;;;;8.17;4.50;;;5.40;64.30;;;;;;4994211;28;20480;-69
2024/01/29 01:25:26;;;;;;;9.77;4.73;;;5.50;65.50;;;;;;4986974;28;20453;-69
2024/01/29 01:27:53;;;;;;;10.07;5.23;;;5.50;65.70;;;;;;4994562;28;20942;-69
2024/01/29 01:30:22;;;;;;;8.20;4.67;;;5.40;66.00;;;;;;4991148;28;20483;-69
2024/01/29 01:32:48;;;;;;;10.87;4.60;;;5.40;66.10;;;;;;4975363;28;20565;-69
2024/01/29 01:35:15;;;;;;;7.83;4.93;;;5.40;66.20;;;;;;4982978;28;20481;-70
2024/01/29 01:37:43;;;;;;;10.60;4.90;;;5.30;66.10;;;;;;4994616;28;20464;-69
2024/01/29 01:40:12;;;;;;;10.20;4.20;;;5.30;66.10;;;;;;4994076;28;20479;-69
2024/01/29 01:42:40;;;;;;;12.80;4.60;;;5.30;66.60;;;;;;4989248;28;20940;-68
2024/01/29 01:45:08;;;;;;;12.43;5.97;;;5.30;66.40;;;;;;4987482;28;20454;-69
2024/01/29 01:47:35;;;;;;;7.90;5.00;;;5.20;69.10;;;;;;4987949;28;20446;-69
2024/01/29 01:50:03;;;;;;;7.70;5.20;;;5.20;73.30;;;;;;4986155;28;20487;-69
2024/01/29 01:52:29;;;;;;;9.47;5.40;;;5.20;73.00;;;;;;4989715;28;20482;-69
2024/01/29 01:54:58;;;;;;;8.17;4.70;;;5.10;73.60;;;;;;4981737;28;20454;-69
2024/01/29 01:57:25;;;;;;;11.70;5.50;;;5.10;74.50;;;;;;4994247;28;20460;-69
2024/01/29 01:59:52;;;;;;;9.70;4.97;;;5.10;73.70;;;;;;4978879;28;20490;-69
2024/01/29 02:02:20;;;;;;;12.07;5.20;;;5.10;73.70;;;;;;4974701;28;20474;-69
2024/01/29 02:04:47;;;;;;;9.00;5.60;;;5.20;73.80;;;;;;4979941;28;20950;-68
2024/01/29 02:07:14;;;;;;;12.10;5.60;;;5.10;73.70;;;;;;4994225;28;20458;-69
2024/01/29 02:09:41;;;;;;;10.20;4.70;;;5.10;73.70;;;;;;4987913;28;20455;-69
2024/01/29 02:12:10;;;;;;;7.80;4.67;;;5.00;73.70;;;;;;4991966;28;20841;-69
2024/01/29 02:14:37;;;;;;;7.93;4.40;;;4.90;73.60;;;;;;4993516;28;20462;-68
2024/01/29 02:17:04;;;;;;;8.40;5.03;;;4.90;73.60;;;;;;4993077;28;20544;-69
2024/01/29 02:19:31;;;;;;;8.07;4.33;;;4.80;73.50;;;;;;4978792;28;20454;-69
2024/01/29 02:21:58;;;;;;;11.40;5.73;;;4.80;73.50;;;;;;4993493;28;20454;-69
2024/01/29 02:24:26;;;;;;;10.27;5.17;;;4.80;73.50;;;;;;4985756;28;20450;-69
2024/01/29 02:26:53;;;;;;;9.93;4.67;;;4.80;73.50;;;;;;4974282;28;20463;-69
2024/01/29 02:29:19;;;;;;;12.40;4.90;;;4.80;73.50;;;;;;4993442;28;20457;-69
2024/01/29 02:31:46;;;;;;;7.00;4.60;;;4.80;73.50;;;;;;4993562;28;20486;-69
2024/01/29 02:34:13;;;;;;;10.43;4.90;;;4.80;73.50;;;;;;4993402;28;20845;-69
2024/01/29 02:36:40;;;;;;;7.57;4.73;;;4.80;73.50;;;;;;4978992;28;20458;-69
2024/01/29 02:39:08;;;;;;;10.73;4.73;;;4.80;73.50;;;;;;4973451;28;20455;-69
2024/01/29 02:41:36;;;;;;;11.30;5.60;;;4.80;73.50;;;;;;4973965;28;20451;-69
2024/01/29 02:44:03;;;;;;;8.40;5.43;;;4.80;73.50;;;;;;4985999;28;20560;-69
2024/01/29 02:46:29;;;;;;;8.20;5.13;;;4.80;73.50;;;;;;4993257;28;20454;-69
2024/01/29 02:48:56;;;;;;;12.20;5.10;;;4.80;73.50;;;;;;4992601;28;20454;-70
2024/01/29 02:51:23;;;;;;;9.23;5.83;;;4.70;73.50;;;;;;4992614;28;20486;-69
2024/01/29 02:53:50;;;;;;;9.30;5.03;;;4.70;73.50;;;;;;4993143;28;20497;-69
2024/01/29 02:56:16;;;;;;;9.17;4.60;;;4.60;76.70;;;;;;4989999;28;20848;-71
2024/01/29 02:58:44;;;;;;;10.70;5.50;;;4.50;80.20;;;;;;4973398;28;20454;-71
2024/01/29 03:01:11;;;;;;;8.60;5.20;;;4.40;80.80;;;;;;4973241;28;20881;-69
2024/01/29 03:03:38;;;;;;;8.40;5.00;;;4.50;81.00;;;;;;4973286;28;20863;-69
2024/01/29 03:06:05;;;;;;;7.83;5.50;;;4.40;80.80;;;;;;4973008;28;20828;-69
2024/01/29 03:08:32;;;;;;;10.00;4.90;;;4.30;80.80;;;;;;4978072;28;20464;-69
2024/01/29 03:10:58;;;;;;;9.40;4.53;;;4.30;80.80;;;;;;4987301;28;20485;-69
2024/01/29 03:13:25;;;;;;;7.37;5.03;;;4.30;80.90;;;;;;4992499;28;20489;-69
2024/01/29 03:15:53;;;;;;;8.60;5.03;;;4.20;83.90;;;;;;4992592;28;20458;-69
2024/01/29 03:18:20;;;;;;;11.20;4.83;;;4.20;87.90;;;;;;4992531;28;20477;-69
2024/01/29 03:20:47;;;;;;;9.93;5.60;;;4.20;87.30;;;;;;4992030;28;20486;-69
2024/01/29 03:23:14;;;;;;;9.73;5.60;;;4.10;88.10;;;;;;4988520;28;20841;-69
2024/01/29 03:25:41;;;;;;;9.93;6.07;;;4.10;88.10;;;;;;4992569;28;20809;-69
2024/01/29 03:28:07;;;;;;;7.90;5.00;;;4.10;88.10;;;;;;4992484;28;20465;-69
2024/01/29 03:30:34;;;;;;;8.80;5.83;;;4.00;88.10;;;;;;4987091;28;20479;-69
2024/01/29 03:33:02;;;;;;;9.50;5.37;;;3.90;88.10;;;;;;4986880;28;20478;-69
2024/01/29 03:35:29;;;;;;;8.97;5.10;;;3.90;88.00;;;;;;4989430;28;20868;-69
2024/01/29 03:37:56;;;;;;;10.30;6.67;;;4.10;88.20;;;;;;4991846;28;20450;-71
2024/01/29 03:40:23;;;;;;;8.00;5.80;;;3.90;88.00;;;;;;4995653;28;20450;-69
2024/01/29 03:42:49;;;;;;;10.47;6.13;;;3.90;88.00;;;;;;4996204;28;21039;-69
2024/01/29 03:45:16;;;;;;;5.93;4.90;;;4.00;88.10;;;;;;4996199;28;20969;-69
2024/01/29 03:47:43;;;;;;;13.00;6.13;;;4.00;88.10;;;;;;4996332;28;20868;-68
2024/01/29 03:50:11;;;;;;;8.37;5.23;;;3.90;88.00;;;;;;4995975;28;20454;-69
2024/01/29 03:52:38;;;;;;;9.20;6.07;;;3.90;88.10;;;;;;4995446;28;20473;-69
2024/01/29 03:55:06;;;;;;;11.03;5.60;;;3.90;89.80;;;;;;4989691;28;20450;-69
2024/01/29 03:57:33;;;;;;;8.40;5.73;;;3.80;90.60;;;;;;4996148;28;20835;-69
2024/01/29 03:59:59;;;;;;;8.30;6.03;;;3.80;91.90;;;;;;4995555;28;20454;-69
2024/01/29 04:02:26;;;;;;;10.33;6.20;;;3.80;92.40;;;;;;4995802;28;20473;-69
2024/01/29 04:04:53;;;;;;;10.93;6.47;;;3.80;92.30;;;;;;4996245;28;20446;-69
2024/01/29 04:07:21;;;;;;;9.00;5.60;;;3.70;92.60;;;;;;4987134;28;20452;-69
2024/01/29 04:09:48;;;;;;;9.60;6.70;;;3.70;94.30;;;;;;4995626;28;20460;-68
2024/01/29 04:12:14;;;;;;;8.40;7.10;;;3.70;95.60;;;;;;4992998;28;20497;-69
2024/01/29 04:14:41;;;;;;;10.60;7.57;;;3.60;95.60;;;;;;4983106;28;20455;-69
2024/01/29 04:17:09;;;;;;;10.60;7.00;;;3.80;96.10;;;;;;4992185;28;20529;-69
2024/01/29 04:19:35;;;;;;;13.30;8.23;;;3.60;95.90;;;;;;4995136;28;20449;-71
2024/01/29 04:22:02;;;;;;;25.07;13.70;;;3.60;97.90;;;;;;4993219;28;20833;-69
2024/01/29 04:24:30;;;;;;;8.60;7.17;;;3.60;98.40;;;;;;4994947;28;20446;-71
2024/01/29 04:26:57;;;;;;;9.50;6.50;;;3.70;98.60;;;;;;4994028;28;20548;-69
2024/01/29 04:29:24;;;;;;;21.03;14.60;;;3.70;98.30;;;;;;4982443;28;20460;-69
2024/01/29 04:31:51;;;;;;;10.13;8.87;;;3.70;98.90;;;;;;4995235;28;20484;-70
2024/01/29 04:34:18;;;;;;;8.50;7.70;;;3.70;98.90;;;;;;4984483;28;20461;-69
2024/01/29 04:36:45;;;;;;;9.30;8.13;;;3.70;99.00;;;;;;4975933;28;20466;-68
2024/01/29 04:39:12;;;;;;;9.23;7.73;;;3.70;99.00;;;;;;4979854;28;20453;-69
2024/01/29 04:41:40;;;;;;;14.00;8.53;;;3.60;99.90;;;;;;4989489;28;20457;-68
2024/01/29 04:44:07;;;;;;;12.80;11.50;;;3.60;99.90;;;;;;4991799;28;20470;-69
2024/01/29 04:46:34;;;;;;;14.10;10.33;;;3.60;99.90;;;;;;4994306;28;20462;-70
2024/01/29 04:49:01;;;;;;;15.10;9.10;;;3.60;99.90;;;;;;4993898;28;20457;-70
2024/01/29 04:51:28;;;;;;;11.17;9.30;;;3.60;99.90;;;;;;4994947;28;20485;-69
2024/01/29 04:53:55;;;;;;;15.60;10.60;;;3.60;99.90;;;;;;4994025;28;20480;-69
2024/01/29 04:56:21;;;;;;;11.27;10.07;;;3.70;99.90;;;;;;4995168;28;20460;-69
2024/01/29 04:58:49;;;;;;;18.13;16.43;;;3.70;99.90;;;;;;4992732;28;20450;-70
2024/01/29 05:01:16;;;;;;;10.33;9.43;;;3.70;99.90;;;;;;4994746;28;20492;-69
2024/01/29 05:03:44;;;;;;;11.40;10.20;;;3.70;99.90;;;;;;4988893;28;20492;-69
2024/01/29 05:06:10;;;;;;;11.20;9.97;;;3.60;99.90;;;;;;4993492;28;20963;-69
2024/01/29 05:08:37;;;;;;;10.73;9.37;;;3.50;99.90;;;;;;4994674;28;20467;-70
2024/01/29 05:11:05;;;;;;;14.87;11.93;;;3.60;99.90;;;;;;4992017;28;20480;-70
2024/01/29 05:13:31;;;;;;;12.13;11.00;;;3.50;99.90;;;;;;4989812;28;20486;-69
2024/01/29 05:16:00;;;;;;;15.57;14.00;;;3.50;99.90;;;;;;4981936;28;20451;-68
2024/01/29 05:18:26;;;;;;;15.97;13.17;;;3.40;99.90;;;;;;4988149;28;20481;-69
2024/01/29 05:20:53;;;;;;;18.00;15.70;;;3.30;99.90;;;;;;4993966;28;20630;-69
2024/01/29 05:23:20;;;;;;;16.30;14.97;;;3.20;99.90;;;;;;4985880;28;21019;-69
2024/01/29 05:25:47;;;;;;;18.40;17.00;;;3.20;99.90;;;;;;4983753;28;20452;-69
2024/01/29 05:28:13;;;;;;;18.00;16.60;;;3.10;99.90;;;;;;4989027;28;20450;-68
2024/01/29 05:30:40;;;;;;;18.77;17.40;;;3.10;99.90;;;;;;4989712;28;20817;-69
2024/01/29 05:33:08;;;;;;;23.67;21.57;;;3.10;99.90;;;;;;4992467;28;20482;-69
2024/01/29 05:35:35;;;;;;;28.30;26.60;;;3.10;99.90;;;;;;4989197;28;20462;-68
2024/01/29 05:38:02;;;;;;;30.10;28.10;;;3.10;99.90;;;;;;4981230;28;20745;-69
2024/01/29 05:40:29;;;;;;;33.87;31.77;;;3.10;99.90;;;;;;4993882;28;20454;-72
2024/01/29 05:42:56;;;;;;;35.73;33.67;;;3.10;99.90;;;;;;4994360;28;20508;-70
2024/01/29 05:45:23;;;;;;;45.47;43.17;;;3.00;99.90;;;;;;4974758;28;20459;-69
2024/01/29 05:47:51;;;;;;;46.47;43.77;;;3.00;99.90;;;;;;4990474;28;20541;-69
2024/01/29 05:50:19;;;;;;;57.57;54.87;;;2.90;99.90;;;;;;4994035;28;20468;-69
2024/01/29 05:52:47;;;;;;;63.87;60.87;;;2.90;99.90;;;;;;4994135;28;20484;-69
2024/01/29 05:55:14;;;;;;;74.20;71.10;;;2.80;99.90;;;;;;4994073;28;20838;-69
2024/01/29 05:57:42;;;;;;;81.27;77.87;;;2.70;99.90;;;;;;4993249;28;20524;-70
2024/01/29 06:00:10;;;;;;;115.70;111.33;;;2.70;99.90;;;;;;4992228;28;20930;-69
2024/01/29 06:02:42;;;;;;;132.13;127.03;;;2.60;99.90;;;;;;4987204;28;20462;-68
2024/01/29 06:05:10;;;;;;;154.00;148.40;;;2.60;99.90;;;;;;4985616;28;20883;-69
2024/01/29 06:07:38;;;;;;;188.33;181.57;;;2.60;99.90;;;;;;4993260;28;20464;-70
2024/01/29 06:10:06;;;;;;;194.70;187.93;;;2.60;99.90;;;;;;4990228;28;20466;-68
2024/01/29 06:12:33;;;;;;;196.57;189.40;;;2.60;99.90;;;;;;4992840;28;20482;-69
2024/01/29 06:15:00;;;;;;;219.07;211.53;;;2.70;99.90;;;;;;4982916;28;20476;-69
2024/01/29 06:17:26;;;;;;;227.13;219.20;;;2.70;99.90;;;;;;4992465;28;20458;-70
2024/01/29 06:19:53;;;;;;;211.67;204.13;;;2.80;99.90;;;;;;4992138;28;20453;-69
2024/01/29 06:22:20;;;;;;;182.03;175.10;;;2.80;99.90;;;;;;4993031;28;20561;-69
2024/01/29 06:24:48;;;;;;;156.57;150.70;;;2.90;99.90;;;;;;4989505;28;20464;-70
2024/01/29 06:27:15;;;;;;;131.47;126.57;;;3.00;99.90;;;;;;4987688;28;20455;-69
2024/01/29 06:29:41;;;;;;;115.97;111.50;;;3.00;99.90;;;;;;4988556;28;20463;-69
2024/01/29 06:32:08;;;;;;;94.97;90.97;;;3.00;99.90;;;;;;4992913;28;20864;-69
2024/01/29 06:34:36;;;;;;;87.47;83.77;;;3.00;99.90;;;;;;4992789;28;20460;-70
2024/01/29 06:37:03;;;;;;;80.43;76.83;;;2.90;99.90;;;;;;4993455;28;20464;-69
2024/01/29 06:39:32;;;;;;;107.30;102.93;;;2.70;99.90;;;;;;4992952;28;20473;-73
2024/01/29 06:42:00;;;;;;;126.20;121.03;;;2.60;99.90;;;;;;4991002;28;20457;-69
2024/01/29 06:44:27;;;;;;;168.57;162.40;;;2.60;99.90;;;;;;4993579;28;20515;-69
2024/01/29 06:46:54;;;;;;;210.40;203.03;;;2.50;99.90;;;;;;4987173;28;20450;-69
2024/01/29 06:49:31;;;;;;;235.37;227.03;;;2.50;99.90;;;;;;4985915;28;20883;-69
2024/01/29 06:51:58;;;;;;;262.67;253.37;;;2.50;99.90;;;;;;4983447;28;20486;-69
2024/01/29 06:54:25;;;;;;;275.20;264.70;;;2.60;99.90;;;;;;4993088;28;20938;-69
2024/01/29 06:56:53;;;;;;;235.57;226.77;;;2.60;99.90;;;;;;4986828;28;20926;-69
2024/01/29 06:59:23;;;;;;;252.13;243.27;;;2.60;99.90;;;;;;4991774;28;20461;-69
2024/01/29 07:01:50;;;;;;;245.30;236.43;;;2.70;99.90;;;;;;4985385;28;20895;-69
2024/01/29 07:04:17;;;;;;;235.03;227.10;;;2.70;99.90;;;;;;4975013;28;20491;-69
2024/01/29 07:06:44;;;;;;;230.83;222.93;;;2.70;99.90;;;;;;4985200;28;20454;-69
2024/01/29 07:09:11;;;;;;;225.23;217.47;;;2.70;99.90;;;;;;4986417;28;20893;-69
2024/01/29 07:11:37;;;;;;;223.57;215.63;;;2.60;99.90;;;;;;4991864;28;20491;-69
2024/01/29 07:14:04;;;;;;;226.03;218.03;;;2.60;99.90;;;;;;4992040;28;20485;-69
2024/01/29 07:16:32;;;;;;;231.70;223.80;;;2.60;99.90;;;;;;4992818;28;20465;-68
2024/01/29 07:18:59;;;;;;;231.43;223.03;;;2.60;99.90;;;;;;4984020;28;20466;-69
2024/01/29 07:21:27;;;;;;;227.20;218.70;;;2.60;99.90;;;;;;4973997;28;20465;-69
2024/01/29 07:23:55;;;;;;;228.73;220.63;;;2.60;99.90;;;;;;4990510;28;20485;-69
2024/01/29 07:26:22;;;;;;;242.47;234.03;;;2.60;99.90;;;;;;4993175;28;20539;-69
2024/01/29 07:28:49;;;;;;;237.13;228.50;;;2.60;99.90;;;;;;4993280;28;20540;-69
2024/01/29 07:31:17;;;;;;;256.43;247.40;;;2.60;99.90;;;;;;4992511;28;20553;-69
2024/01/29 07:33:45;;;;;;;254.90;245.87;;;2.60;99.90;;;;;;4979279;28;20550;-68
2024/01/29 07:36:13;;;;;;;268.87;259.33;;;2.60;99.90;;;;;;4974867;28;20465;-69
2024/01/29 07:38:41;;;;;;;269.50;260.07;;;2.60;99.90;;;;;;4979219;28;20847;-69
2024/01/29 07:41:08;;;;;;;272.17;262.70;;;2.60;99.90;;;;;;4982525;28;20453;-69
2024/01/29 07:43:34;;;;;;;287.57;276.90;;;2.60;99.90;;;;;;4986211;28;20984;-70
2024/01/29 07:46:01;;;;;;;286.33;275.87;;;2.60;99.90;;;;;;4991585;28;20965;-69
2024/01/29 07:48:28;;;;;;;297.53;285.23;;;2.60;99.90;;;;;;4972275;28;20780;-71
2024/01/29 07:50:57;;;;;;;288.07;277.57;;;2.70;99.90;;;;;;4990722;28;20532;-69
2024/01/29 07:53:23;;;;;;;292.07;281.47;;;2.70;99.90;;;;;;4979523;28;21021;-70
2024/01/29 07:55:50;;;;;;;298.67;287.93;;;2.80;99.90;;;;;;4972219;28;20458;-70
2024/01/29 07:58:17;;;;;;;299.67;288.63;;;2.80;99.90;;;;;;4972176;28;20475;-69
2024/01/29 08:00:45;;;;;;;294.13;283.53;;;2.90;99.90;;;;;;4986557;28;20464;-69
2024/01/29 08:03:12;;;;;;;299.90;288.93;;;3.00;99.90;;;;;;4991745;28;20481;-68
2024/01/29 08:05:39;;;;;;;303.27;291.87;;;3.20;99.90;;;;;;4991575;28;20470;-69
2024/01/29 08:08:08;;;;;;;280.00;269.83;;;3.30;99.90;;;;;;4991581;28;20533;-69
2024/01/29 08:10:36;;;;;;;294.77;284.40;;;3.40;99.90;;;;;;4986103;28;20484;-69
2024/01/29 08:13:04;;;;;;;268.17;258.20;;;3.50;99.90;;;;;;4973035;28;20490;-69
2024/01/29 08:15:31;;;;;;;238.70;230.60;;;3.60;99.90;;;;;;4991793;28;20853;-69
2024/01/29 08:17:57;;;;;;;182.87;175.80;;;3.80;99.90;;;;;;4991408;28;20460;-69
2024/01/29 08:20:25;;;;;;;149.37;143.87;;;3.90;99.90;;;;;;4986347;28;20456;-70
2024/01/29 08:22:52;;;;;;;120.90;115.93;;;4.10;99.90;;;;;;4994963;28;20462;-69
2024/01/29 08:25:21;;;;;;;83.80;80.20;;;4.20;99.90;;;;;;4994325;28;20457;-69
2024/01/29 08:27:47;;;;;;;61.50;58.70;;;4.30;99.90;;;;;;4994654;28;20525;-69
2024/01/29 08:30:15;;;;;;;41.90;39.50;;;4.40;99.90;;;;;;4994542;28;20480;-69
2024/01/29 08:32:44;;;;;;;32.47;30.53;;;4.50;99.90;;;;;;4994629;28;20231;-69
2024/01/29 08:35:11;;;;;;;22.40;20.52;;;4.50;99.90;;;;;;4985841;28;20495;-70
2024/01/29 08:37:38;;;;;;;24.07;22.30;;;4.60;99.90;;;;;;4995008;28;20560;-69
2024/01/29 08:40:06;;;;;;;22.57;20.43;;;4.70;99.90;;;;;;4995272;28;20466;-69
2024/01/29 08:42:36;;;;;;;22.27;19.03;;;4.70;99.90;;;;;;4995426;28;20513;-69
2024/01/29 08:45:03;;;;;;;23.20;21.30;;;4.80;99.90;;;;;;4995643;28;20540;-69
2024/01/29 08:47:30;;;;;;;20.53;18.67;;;4.80;99.90;;;;;;4982935;28;20458;-69
2024/01/29 08:49:56;;;;;;;20.73;19.10;;;4.90;99.90;;;;;;4975464;28;20458;-69
2024/01/29 08:52:23;;;;;;;20.33;18.43;;;5.00;99.90;;;;;;4975854;28;20868;-69
2024/01/29 08:54:50;;;;;;;19.03;17.20;;;5.00;99.90;;;;;;4983094;28;20454;-69
2024/01/29 08:57:17;;;;;;;19.90;18.10;;;5.10;99.90;;;;;;4995232;28;21037;-69
2024/01/29 08:59:45;;;;;;;19.87;17.60;;;5.20;99.90;;;;;;4994937;28;20976;-69
2024/01/29 09:02:12;;;;;;;19.63;18.00;;;5.30;99.90;;;;;;4976669;28;20485;-69
2024/01/29 09:04:39;;;;;;;17.43;15.83;;;5.40;99.90;;;;;;4981079;28;20946;-69
2024/01/29 09:07:06;;;;;;;20.17;16.00;;;5.40;99.90;;;;;;4995166;28;20458;-69
2024/01/29 09:09:33;;;;;;;14.47;13.00;;;5.50;99.90;;;;;;4996312;28;20481;-69
2024/01/29 09:11:59;;;;;;;16.47;11.70;;;5.60;99.90;;;;;;4995334;28;20450;-69
2024/01/29 09:14:27;;;;;;;14.90;11.70;;;5.70;99.90;;;;;;4994814;28;20457;-69
2024/01/29 09:16:55;;;;;;;13.10;11.80;;;5.80;99.90;;;;;;4978926;28;20455;-69
2024/01/29 09:19:23;;;;;;;14.50;11.30;;;5.90;99.90;;;;;;4975109;28;20833;-68
2024/01/29 09:21:50;;;;;;;13.93;11.60;;;6.00;99.90;;;;;;4982413;28;20561;-69
2024/01/29 09:24:17;;;;;;;11.30;9.60;;;6.10;99.90;;;;;;4986620;28;20461;-69
2024/01/29 09:26:44;;;;;;;13.80;10.60;;;6.30;99.90;;;;;;4994566;28;20458;-68
2024/01/29 09:29:11;;;;;;;12.53;9.00;;;6.40;99.90;;;;;;4976297;28;20455;-69
2024/01/29 09:31:37;;;;;;;15.20;9.90;;;6.50;99.90;;;;;;4973939;28;20455;-68
2024/01/29 09:34:06;;;;;;;11.80;9.30;;;6.60;99.90;;;;;;4976059;28;20917;-69
2024/01/29 09:36:32;;;;;;;13.07;9.03;;;6.70;99.90;;;;;;4975477;28;20462;-69
2024/01/29 09:38:59;;;;;;;12.27;9.37;;;6.80;99.90;;;;;;4974974;28;20467;-70
2024/01/29 09:41:26;;;;;;;13.27;8.93;;;6.90;99.90;;;;;;4974872;28;20465;-69
2024/01/29 09:43:56;;;;;;;12.30;9.23;;;7.00;99.90;;;;;;4982246;28;20477;-69
2024/01/29 09:46:25;;;;;;;16.47;9.90;;;7.00;99.90;;;;;;4983403;28;21202;-69
2024/01/29 09:48:52;;;;;;;13.20;9.30;;;7.10;99.90;;;;;;4974687;28;20513;-69
2024/01/29 09:51:21;;;;;;;17.13;8.87;;;7.30;99.90;;;;;;4974852;28;20461;-69
2024/01/29 09:53:50;;;;;;;11.93;9.10;;;7.30;99.90;;;;;;4974983;28;20497;-70
2024/01/29 09:56:16;;;;;;;14.10;9.53;;;7.40;99.90;;;;;;4991215;28;21690;-71
2024/01/29 09:58:43;;;;;;;14.00;9.17;;;7.50;99.90;;;;;;4974670;28;20465;-69
2024/01/29 10:01:14;;;;;;;18.40;9.17;;;7.60;99.90;;;;;;4992194;28;20857;-69
2024/01/29 10:03:42;;;;;;;14.37;8.37;;;7.70;99.90;;;;;;4988054;28;20475;-69
2024/01/29 10:06:10;;;;;;;14.10;9.10;;;7.70;99.90;;;;;;4976488;28;20601;-69
2024/01/29 10:08:39;;;;;;;13.37;9.20;;;7.90;99.90;;;;;;4993990;28;20858;-69
2024/01/29 10:11:07;;;;;;;14.13;9.20;;;8.00;99.90;;;;;;4985135;28;20518;-69
2024/01/29 10:13:34;;;;;;;16.70;10.57;;;8.10;99.90;;;;;;4988285;28;20498;-69
2024/01/29 10:16:01;;;;;;;14.93;9.07;;;8.20;99.90;;;;;;4990866;28;20476;-69
2024/01/29 10:18:30;;;;;;;16.73;9.23;;;8.20;99.60;;;;;;4993819;28;20454;-69
2024/01/29 10:21:00;;;;;;;12.60;8.60;;;8.20;99.50;;;;;;4985179;28;20529;-70
2024/01/29 10:23:27;;;;;;;13.57;8.20;;;8.20;97.70;;;;;;4986006;28;21052;-69
2024/01/29 10:25:57;;;;;;;13.70;9.20;;;8.30;99.10;;;;;;4993268;28;20460;-70
2024/01/29 10:28:26;;;;;;;13.00;8.00;;;8.40;97.50;;;;;;4985694;28;20480;-69
2024/01/29 10:30:54;;;;;;;15.00;8.57;;;8.40;97.50;;;;;;4993173;28;20458;-70
2024/01/29 10:33:21;;;;;;;14.83;8.60;;;8.60;97.50;;;;;;4990019;28;20483;-69
2024/01/29 10:35:48;;;;;;;14.13;9.00;;;8.80;97.60;;;;;;4980947;28;20524;-69
2024/01/29 10:38:17;;;;;;;16.27;8.50;;;9.00;97.70;;;;;;4992936;28;20458;-69
2024/01/29 10:40:45;;;;;;;15.73;9.07;;;9.20;97.70;;;;;;4978506;28;20672;-70
2024/01/29 10:43:19;;;;;;;13.97;9.40;;;9.40;97.70;;;;;;4975620;28;20475;-69
2024/01/29 10:45:49;;;;;;;12.53;7.80;;;9.40;94.50;;;;;;4993191;28;20549;-69
2024/01/29 10:48:20;;;;;;;11.00;8.00;;;9.90;91.40;;;;;;4990523;28;20449;-70
2024/01/29 10:50:48;;;;;;;14.37;8.53;;;10.50;91.10;;;;;;4987921;28;20466;-69
2024/01/29 10:53:16;;;;;;;13.30;8.10;;;11.20;78.10;;;;;;4992948;28;20544;-70
2024/01/29 10:55:44;;;;;;;14.53;8.10;;;11.70;78.40;;;;;;4993013;28;20478;-69
2024/01/29 10:58:14;;;;;;;11.87;7.60;;;12.40;71.20;;;;;;4992851;28;20480;-69
2024/01/29 11:00:42;;;;;;;15.17;7.50;;;12.80;63.50;;;;;;4986372;28;20962;-69
2024/01/29 11:03:11;;;;;;;16.40;7.30;;;13.20;63.90;;;;;;4973178;28;20497;-70
2024/01/29 11:05:39;;;;;;;12.20;7.90;;;13.40;55.90;;;;;;4987074;28;20449;-70
2024/01/29 11:08:11;;;;;;;12.63;8.87;;;13.30;55.60;;;;;;4976700;28;20455;-69
2024/01/29 11:10:38;;;;;;;16.47;8.43;;;13.20;55.50;;;;;;4986916;28;20465;-69
2024/01/29 11:13:07;;;;;;;11.70;7.90;;;13.00;57.50;;;;;;4990031;28;20493;-70
2024/01/29 11:15:35;;;;;;;13.07;8.17;;;12.80;56.90;;;;;;4992682;28;20548;-69
2024/01/29 11:18:02;;;;;;;17.67;8.30;;;12.40;63.10;;;;;;4992340;28;20454;-69
2024/01/29 11:20:32;;;;;;;13.70;7.77;;;12.20;63.00;;;;;;4992363;28;20496;-70
2024/01/29 11:23:02;;;;;;;14.30;7.43;;;11.90;62.70;;;;;;4992663;28;20473;-70
2024/01/29 11:25:28;;;;;;;14.50;7.10;;;11.90;62.70;;;;;;4980109;28;20984;-70
2024/01/29 11:27:57;;;;;;;14.70;7.83;;;11.80;62.60;;;;;;4973012;28;20466;-70
2024/01/29 11:30:25;;;;;;;15.40;7.30;;;11.70;62.50;;;;;;4984233;28;20512;-69
2024/01/29 11:32:56;;;;;;;9.93;7.20;;;11.60;62.50;;;;;;4984536;28;20478;-72
2024/01/29 11:35:26;;;;;;;12.33;7.00;;;11.50;63.10;;;;;;4976074;28;20937;-70
2024/01/29 11:37:54;;;;;;;14.33;8.70;;;11.40;67.50;;;;;;4984784;28;20455;-69
2024/01/29 11:40:45;;;;;;;14.30;7.80;;;11.50;70.40;;;;;;4984235;28;20512;-69
2024/01/29 11:43:14;;;;;;;12.33;8.00;;;11.60;68.10;;;;;;4987549;28;21023;-70
2024/01/29 11:45:42;;;;;;;13.73;8.37;;;11.90;68.70;;;;;;4979833;28;20517;-70
2024/01/29 11:48:11;;;;;;;11.57;7.17;;;12.50;63.30;;;;;;4973353;28;20459;-70
2024/01/29 11:50:39;;;;;;;13.67;8.20;;;13.10;63.80;;;;;;4972478;28;20455;-71
2024/01/29 11:53:06;;;;;;;13.03;7.40;;;13.80;61.90;;;;;;4973400;28;20561;-71
2024/01/29 11:55:33;;;;;;;13.53;8.13;;;14.30;56.50;;;;;;4988477;28;21009;-70
2024/01/29 11:58:00;;;;;;;16.03;8.03;;;14.70;52.80;;;;;;4995352;28;20453;-70
2024/01/29 12:00:26;;;;;;;13.87;8.20;;;15.40;49.00;;;;;;4995989;28;20839;-70
2024/01/29 12:02:54;;;;;;;11.37;7.33;;;15.60;49.10;;;;;;4989000;28;20565;-70
2024/01/29 12:05:24;;;;;;;14.10;7.23;;;15.70;42.20;;;;;;4977244;28;20805;-70
2024/01/29 12:07:51;;;;;;;12.80;7.80;;;16.00;40.60;;;;;;4976432;28;20458;-70
2024/01/29 12:10:18;;;;;;;11.43;7.83;;;16.30;34.20;;;;;;4995282;28;20469;-70
2024/01/29 12:12:45;;;;;;;14.57;7.77;;;16.50;32.10;;;;;;4996306;28;20485;-70
2024/01/29 12:15:13;;;;;;;12.27;8.00;;;16.70;32.20;;;;;;4996813;28;20484;-70
2024/01/29 12:17:44;;;;;;;11.83;7.47;;;16.70;32.20;;;;;;4997226;28;20454;-69
2024/01/29 12:20:15;;;;;;;17.60;9.53;;;16.80;32.30;;;;;;4994692;28;21020;-71
2024/01/29 12:22:44;;;;;;;11.07;7.27;;;17.10;28.30;;;;;;4977117;28;20510;-69
2024/01/29 12:25:12;;;;;;;10.17;7.33;;;17.50;25.20;;;;;;4976178;28;20951;-69
2024/01/29 12:27:39;;;;;;;12.33;8.23;;;17.50;25.20;;;;;;4981768;28;20464;-69
2024/01/29 12:30:10;;;;;;;12.20;7.20;;;17.60;25.30;;;;;;4995371;28;20460;-70
2024/01/29 12:32:39;;;;;;;15.30;8.23;;;17.60;25.20;;;;;;4995300;28;20481;-69
2024/01/29 12:35:24;;;;;;;11.13;7.27;;;17.80;21.90;;;;;;4977848;28;20493;-70
2024/01/29 12:37:52;;;;;;;11.60;7.30;;;17.70;18.10;;;;;;4976019;28;20993;-70
2024/01/29 12:40:19;;;;;;;13.23;7.10;;;18.00;18.30;;;;;;4975855;28;20459;-70
2024/01/29 12:42:46;;;;;;;10.73;7.27;;;18.00;18.30;;;;;;4982468;28;20544;-70